createdAt,value
2018-04-19T00:00:01.989Z,14.20
2018-04-19T00:01:01.896Z,16.00
2018-04-19T00:02:01.807Z,14.30
2018-04-19T00:03:01.718Z,14.50
2018-04-19T00:04:01.666Z,14.30
2018-04-19T00:05:01.547Z,14.80
2018-04-19T00:06:01.543Z,15.00
2018-04-19T00:07:01.362Z,14.80
2018-04-19T00:08:01.275Z,14.50
2018-04-19T00:09:01.210Z,16.00
2018-04-19T00:10:01.095Z,14.90
2018-04-19T00:11:01.009Z,13.80
2018-04-19T00:12:00.913Z,14.60
2018-04-19T00:13:00.917Z,13.60
2018-04-19T00:14:00.766Z,14.50
2018-04-19T00:15:00.643Z,14.60
2018-04-19T00:16:00.556Z,14.60
2018-04-19T00:17:00.468Z,13.90
2018-04-19T00:18:00.375Z,12.20
2018-04-19T00:19:00.320Z,15.00
2018-04-19T00:20:00.291Z,14.70
2018-04-19T00:21:00.107Z,14.10
2018-04-19T00:22:00.023Z,15.20
2018-04-19T00:22:59.932Z,13.40
2018-04-19T00:23:59.871Z,13.40
2018-04-19T00:24:59.749Z,15.00
2018-04-19T00:25:59.658Z,15.60
2018-04-19T00:26:59.665Z,14.70
2018-04-19T00:27:59.482Z,14.80
2018-04-19T00:28:59.420Z,13.80
2018-04-19T00:29:59.299Z,15.10
2018-04-19T00:30:59.210Z,14.70
2018-04-19T00:31:59.121Z,15.90
2018-04-19T00:32:59.031Z,14.50
2018-04-19T00:33:59.064Z,13.10
2018-04-19T00:34:58.861Z,13.90
2018-04-19T00:35:58.766Z,15.90
2018-04-19T00:36:58.674Z,13.00
2018-04-19T00:37:58.582Z,12.90
2018-04-19T00:38:58.525Z,13.10
2018-04-19T00:39:58.405Z,14.00
2018-04-19T00:40:58.406Z,15.00
2018-04-19T00:41:58.227Z,13.70
2018-04-19T00:42:58.133Z,13.70
2018-04-19T00:43:58.073Z,12.90
2018-04-19T00:44:57.956Z,14.70
2018-04-19T00:45:57.865Z,14.90
2018-04-19T00:46:57.775Z,14.90
2018-04-19T00:47:57.782Z,15.00
2018-04-19T00:48:57.626Z,16.60
2018-04-19T00:49:57.505Z,13.90
2018-04-19T00:50:57.418Z,12.20
2018-04-19T00:51:57.327Z,12.10
2018-04-19T00:52:57.236Z,12.50
2018-04-19T00:53:57.150Z,11.80
2018-04-19T00:54:57.085Z,13.50
2018-04-19T00:55:56.963Z,12.40
2018-04-19T00:56:56.875Z,12.70
2018-04-19T00:57:56.788Z,12.70
2018-04-19T00:58:56.724Z,11.90
2018-04-19T00:59:56.633Z,12.20
2018-04-19T01:00:56.512Z,13.80
2018-04-19T01:01:56.519Z,12.90
2018-04-19T01:02:56.333Z,15.10
2018-04-19T01:03:56.244Z,13.60
2018-04-19T01:04:56.181Z,16.80
2018-04-19T01:05:56.067Z,16.90
2018-04-19T01:06:55.975Z,17.50
2018-04-19T01:07:56.005Z,15.60
2018-04-19T01:08:55.792Z,16.40
2018-04-19T01:09:55.732Z,16.70
2018-04-19T01:10:55.614Z,14.10
2018-04-19T01:11:55.521Z,15.50
2018-04-19T01:12:55.430Z,16.90
2018-04-19T01:13:55.341Z,15.50
2018-04-19T01:14:55.282Z,16.80
2018-04-19T01:15:55.160Z,16.80
2018-04-19T01:16:55.067Z,16.30
2018-04-19T01:17:54.976Z,15.90
2018-04-19T01:18:54.891Z,15.90
2018-04-19T01:19:54.828Z,16.80
2018-04-19T01:20:54.707Z,15.10
2018-04-19T01:21:54.621Z,16.80
2018-04-19T01:22:54.527Z,17.80
2018-04-19T01:23:54.441Z,18.00
2018-04-19T01:24:54.376Z,16.10
2018-04-19T01:25:54.256Z,16.30
2018-04-19T01:26:54.167Z,15.60
2018-04-19T01:27:54.076Z,16.60
2018-04-19T01:28:53.993Z,16.40
2018-04-19T01:29:53.932Z,19.10
2018-04-19T01:30:53.814Z,18.00
2018-04-19T01:31:53.723Z,16.80
2018-04-19T01:32:53.631Z,16.80
2018-04-19T01:33:53.541Z,17.10
2018-04-19T01:34:53.483Z,18.20
2018-04-19T01:35:53.362Z,16.80
2018-04-19T01:36:53.270Z,15.80
2018-04-19T01:37:53.181Z,15.40
2018-04-19T01:38:53.096Z,14.90
2018-04-19T01:39:53.030Z,17.20
2018-04-19T01:40:52.910Z,15.50
2018-04-19T01:41:52.819Z,13.30
2018-04-19T01:42:52.732Z,14.70
2018-04-19T01:43:52.641Z,15.00
2018-04-19T01:44:52.579Z,13.40
2018-04-19T01:45:52.459Z,14.80
2018-04-19T01:46:52.371Z,15.70
2018-04-19T01:47:52.279Z,15.10
2018-04-19T01:48:52.190Z,15.60
2018-04-19T01:49:52.129Z,14.80
2018-04-19T01:50:52.018Z,16.70
2018-04-19T01:51:51.921Z,15.60
2018-04-19T01:52:51.825Z,13.70
2018-04-19T01:53:51.737Z,14.50
2018-04-19T01:54:51.692Z,15.40
2018-04-19T01:55:51.558Z,15.10
2018-04-19T01:56:51.467Z,16.40
2018-04-19T01:57:51.377Z,14.50
2018-04-19T01:58:51.286Z,14.80
2018-04-19T01:59:51.224Z,13.80
2018-04-19T02:00:51.105Z,13.10
2018-04-19T02:01:51.016Z,13.30
2018-04-19T02:02:50.927Z,13.80
2018-04-19T02:03:50.834Z,13.20
2018-04-19T02:04:50.778Z,14.20
2018-04-19T02:05:50.651Z,13.90
2018-04-19T02:06:50.563Z,14.80
2018-04-19T02:07:50.471Z,14.80
2018-04-19T02:08:50.379Z,14.60
2018-04-19T02:09:50.322Z,14.80
2018-04-19T02:10:50.196Z,14.80
2018-04-19T02:11:50.107Z,13.60
2018-04-19T02:12:50.016Z,14.10
2018-04-19T02:13:49.926Z,13.00
2018-04-19T02:14:49.865Z,13.20
2018-04-19T02:15:49.747Z,13.50
2018-04-19T02:16:49.650Z,13.80
2018-04-19T02:17:49.563Z,13.30
2018-04-19T02:18:49.469Z,13.00
2018-04-19T02:19:49.407Z,13.60
2018-04-19T02:20:49.288Z,14.80
2018-04-19T02:21:49.197Z,14.60
2018-04-19T02:22:49.108Z,15.50
2018-04-19T02:23:49.021Z,14.80
2018-04-19T02:24:48.952Z,15.00
2018-04-19T02:25:48.924Z,14.00
2018-04-19T02:26:48.741Z,17.10
2018-04-19T02:27:48.647Z,15.70
2018-04-19T02:28:48.556Z,15.40
2018-04-19T02:29:48.497Z,15.50
2018-04-19T02:30:48.375Z,16.30
2018-04-19T02:31:48.287Z,16.40
2018-04-19T02:32:48.191Z,15.40
2018-04-19T02:33:48.103Z,13.80
2018-04-19T02:34:48.039Z,19.50
2018-04-19T02:35:47.950Z,22.80
2018-04-19T02:36:47.826Z,18.50
2018-04-19T02:37:47.735Z,19.90
2018-04-19T02:38:47.650Z,22.10
2018-04-19T02:39:47.583Z,18.60
2018-04-19T02:40:47.469Z,18.00
2018-04-19T02:41:47.368Z,19.50
2018-04-19T02:42:47.278Z,20.80
2018-04-19T02:43:47.184Z,18.50
2018-04-19T02:44:47.134Z,15.70
2018-04-19T02:45:47.002Z,17.70
2018-04-19T02:46:47.004Z,15.90
2018-04-19T02:47:46.822Z,15.70
2018-04-19T02:48:46.731Z,19.30
2018-04-19T02:49:46.670Z,18.40
2018-04-19T02:50:46.545Z,17.40
2018-04-19T02:51:46.455Z,22.90
2018-04-19T02:52:46.371Z,21.80
2018-04-19T02:53:46.376Z,20.10
2018-04-19T02:54:46.208Z,23.80
2018-04-19T02:55:46.089Z,20.30
2018-04-19T02:56:45.996Z,18.00
2018-04-19T02:57:45.907Z,19.70
2018-04-19T02:58:45.816Z,20.00
2018-04-19T02:59:45.754Z,23.10
2018-04-19T03:00:45.725Z,23.00
2018-04-19T03:01:45.542Z,24.50
2018-04-19T03:02:45.447Z,23.00
2018-04-19T03:03:45.361Z,22.00
2018-04-19T03:04:45.299Z,20.00
2018-04-19T03:05:45.176Z,21.20
2018-04-19T03:06:45.086Z,21.40
2018-04-19T03:07:45.086Z,24.20
2018-04-19T03:08:44.900Z,24.90
2018-04-19T03:09:44.839Z,25.40
2018-04-19T03:10:44.721Z,21.90
2018-04-19T03:11:44.632Z,20.80
2018-04-19T03:12:44.537Z,21.40
2018-04-19T03:13:44.453Z,21.10
2018-04-19T03:14:44.488Z,20.50
2018-04-19T03:15:44.266Z,21.80
2018-04-19T03:16:44.172Z,21.10
2018-04-19T03:17:44.082Z,22.40
2018-04-19T03:18:43.989Z,23.30
2018-04-19T03:19:43.899Z,22.60
2018-04-19T03:20:43.832Z,22.20
2018-04-19T03:21:43.810Z,23.90
2018-04-19T03:22:43.627Z,23.10
2018-04-19T03:23:43.531Z,23.70
2018-04-19T03:24:43.474Z,23.20
2018-04-19T03:25:43.353Z,23.50
2018-04-19T03:26:43.262Z,23.10
2018-04-19T03:27:43.168Z,23.70
2018-04-19T03:28:43.172Z,24.00
2018-04-19T03:29:42.991Z,23.20
2018-04-19T03:30:42.927Z,23.20
2018-04-19T03:31:42.806Z,22.90
2018-04-19T03:32:42.715Z,21.50
2018-04-19T03:33:42.623Z,22.80
2018-04-19T03:34:42.537Z,22.90
2018-04-19T03:35:42.559Z,23.30
2018-04-19T03:36:42.348Z,21.50
2018-04-19T03:37:42.260Z,21.60
2018-04-19T03:38:42.169Z,22.30
2018-04-19T03:39:42.079Z,22.80
2018-04-19T03:40:42.060Z,19.80
2018-04-19T03:41:41.897Z,22.50
2018-04-19T03:42:41.899Z,21.60
2018-04-19T03:43:41.716Z,22.30
2018-04-19T03:44:41.626Z,22.10
2018-04-19T03:45:41.573Z,23.10
2018-04-19T03:46:41.441Z,23.20
2018-04-19T03:47:41.353Z,22.80
2018-04-19T03:48:41.260Z,22.60
2018-04-19T03:49:41.268Z,20.90
2018-04-19T03:50:41.108Z,22.00
2018-04-19T03:51:40.987Z,22.10
2018-04-19T03:52:40.898Z,19.30
2018-04-19T03:53:40.806Z,22.10
2018-04-19T03:54:40.717Z,21.70
2018-04-19T03:55:40.732Z,20.50
2018-04-19T03:56:40.535Z,22.30
2018-04-19T03:57:40.442Z,21.60
2018-04-19T03:58:40.352Z,22.00
2018-04-19T03:59:40.262Z,21.20
2018-04-19T04:00:40.203Z,21.60
2018-04-19T04:01:40.080Z,20.60
2018-04-19T04:02:39.991Z,20.70
2018-04-19T04:03:39.996Z,18.90
2018-04-19T04:04:39.807Z,21.60
2018-04-19T04:05:39.745Z,21.20
2018-04-19T04:06:39.629Z,18.80
2018-04-19T04:07:39.539Z,18.40
2018-04-19T04:08:39.446Z,17.90
2018-04-19T04:09:39.356Z,21.50
2018-04-19T04:10:39.294Z,21.10
2018-04-19T04:11:39.175Z,20.60
2018-04-19T04:12:39.083Z,20.00
2018-04-19T04:13:38.992Z,19.30
2018-04-19T04:14:38.904Z,20.00
2018-04-19T04:15:38.839Z,21.10
2018-04-19T04:16:38.720Z,19.60
2018-04-19T04:17:38.628Z,20.70
2018-04-19T04:18:38.541Z,21.40
2018-04-19T04:19:38.450Z,20.30
2018-04-19T04:20:38.385Z,20.40
2018-04-19T04:21:38.266Z,19.10
2018-04-19T04:22:38.177Z,17.40
2018-04-19T04:23:38.086Z,17.10
2018-04-19T04:24:37.996Z,17.30
2018-04-19T04:25:37.934Z,17.60
2018-04-19T04:26:37.813Z,18.10
2018-04-19T04:27:37.722Z,20.90
2018-04-19T04:28:37.635Z,16.50
2018-04-19T04:29:37.541Z,16.50
2018-04-19T04:30:37.478Z,15.30
2018-04-19T04:31:37.359Z,15.20
2018-04-19T04:32:37.267Z,15.20
2018-04-19T04:33:37.179Z,18.90
2018-04-19T04:34:37.092Z,15.70
2018-04-19T04:35:37.026Z,17.90
2018-04-19T04:36:36.900Z,13.90
2018-04-19T04:37:36.812Z,14.90
2018-04-19T04:38:36.724Z,15.00
2018-04-19T04:39:36.631Z,15.60
2018-04-19T04:40:36.571Z,17.10
2018-04-19T04:41:36.449Z,14.80
2018-04-19T04:42:36.360Z,16.70
2018-04-19T04:43:36.268Z,15.20
2018-04-19T04:44:36.175Z,15.50
2018-04-19T04:45:36.116Z,14.70
2018-04-19T04:46:35.995Z,14.40
2018-04-19T04:47:35.906Z,14.50
2018-04-19T04:48:35.812Z,14.90
2018-04-19T04:49:35.723Z,14.70
2018-04-19T04:50:35.661Z,14.40
2018-04-19T04:51:35.540Z,14.70
2018-04-19T04:52:35.449Z,13.70
2018-04-19T04:53:35.354Z,15.40
2018-04-19T04:54:35.265Z,14.30
2018-04-19T04:55:35.180Z,13.10
2018-04-19T04:56:35.112Z,16.30
2018-04-19T04:57:34.989Z,15.90
2018-04-19T04:58:34.899Z,14.50
2018-04-19T04:59:34.809Z,13.90
2018-04-19T05:00:34.717Z,15.80
2018-04-19T05:01:34.657Z,16.40
2018-04-19T05:02:34.533Z,16.70
2018-04-19T05:03:34.443Z,19.00
2018-04-19T05:04:34.353Z,21.00
2018-04-19T05:05:34.262Z,21.20
2018-04-19T05:06:34.196Z,18.00
2018-04-19T05:07:34.078Z,20.90
2018-04-19T05:08:33.985Z,18.10
2018-04-19T05:09:33.897Z,20.00
2018-04-19T05:10:33.806Z,19.60
2018-04-19T05:11:33.745Z,21.80
2018-04-19T05:12:33.715Z,22.40
2018-04-19T05:13:33.536Z,14.70
2018-04-19T05:14:33.467Z,17.40
2018-04-19T05:15:33.353Z,17.10
2018-04-19T05:16:33.294Z,21.10
2018-04-19T05:17:33.175Z,17.00
2018-04-19T05:18:33.103Z,21.60
2018-04-19T05:19:32.994Z,22.70
2018-04-19T05:20:32.911Z,17.80
2018-04-19T05:21:33.104Z,19.70
2018-04-19T05:22:32.726Z,21.40
2018-04-19T05:23:32.637Z,19.00
2018-04-19T05:24:32.547Z,17.60
2018-04-19T05:25:32.460Z,15.20
2018-04-19T05:26:32.497Z,20.30
2018-04-19T05:27:32.284Z,18.20
2018-04-19T05:28:32.196Z,16.30
2018-04-19T05:29:32.101Z,16.80
2018-04-19T05:30:32.017Z,19.10
2018-04-19T05:31:31.959Z,15.60
2018-04-19T05:32:31.839Z,16.40
2018-04-19T05:33:31.845Z,14.20
2018-04-19T05:34:31.664Z,14.40
2018-04-19T05:35:31.574Z,15.10
2018-04-19T05:36:31.516Z,16.20
2018-04-19T05:37:31.402Z,15.70
2018-04-19T05:38:31.311Z,14.30
2018-04-19T05:39:31.229Z,14.20
2018-04-19T05:40:31.232Z,16.80
2018-04-19T05:41:31.080Z,13.90
2018-04-19T05:42:30.965Z,14.20
2018-04-19T05:43:30.876Z,14.30
2018-04-19T05:44:30.788Z,15.90
2018-04-19T05:45:30.705Z,15.60
2018-04-19T05:46:30.644Z,17.40
2018-04-19T05:47:30.618Z,14.60
2018-04-19T05:48:30.438Z,14.10
2018-04-19T05:49:30.353Z,14.70
2018-04-19T05:50:30.271Z,14.60
2018-04-19T05:51:30.214Z,15.90
2018-04-19T05:52:30.090Z,18.30
2018-04-19T05:53:30.004Z,16.30
2018-04-19T05:54:30.064Z,13.60
2018-04-19T05:55:29.834Z,14.30
2018-04-19T05:56:29.774Z,13.00
2018-04-19T05:57:29.658Z,12.50
2018-04-19T05:58:29.573Z,15.80
2018-04-19T05:59:29.483Z,15.70
2018-04-19T06:00:29.399Z,10.70
2018-04-19T06:01:29.435Z,11.10
2018-04-19T06:02:29.225Z,12.70
2018-04-19T06:03:29.140Z,12.70
2018-04-19T06:04:29.055Z,15.50
2018-04-19T06:05:28.971Z,14.50
2018-04-19T06:06:28.910Z,16.40
2018-04-19T06:07:28.888Z,17.50
2018-04-19T06:08:28.708Z,16.80
2018-04-19T06:09:28.625Z,16.30
2018-04-19T06:10:28.538Z,16.20
2018-04-19T06:11:28.482Z,16.20
2018-04-19T06:12:28.367Z,14.00
2018-04-19T06:13:28.277Z,15.10
2018-04-19T06:14:28.193Z,15.60
2018-04-19T06:15:28.105Z,15.10
2018-04-19T06:16:28.051Z,14.40
2018-04-19T06:17:27.934Z,14.40
2018-04-19T06:18:27.847Z,14.50
2018-04-19T06:19:27.764Z,13.70
2018-04-19T06:20:27.677Z,16.70
2018-04-19T06:21:27.618Z,15.10
2018-04-19T06:22:27.504Z,16.50
2018-04-19T06:23:27.419Z,14.70
2018-04-19T06:24:27.334Z,14.70
2018-04-19T06:25:27.245Z,15.10
2018-04-19T06:26:27.164Z,15.20
2018-04-19T06:27:27.106Z,17.40
2018-04-19T06:28:26.990Z,16.90
2018-04-19T06:29:26.904Z,16.20
2018-04-19T06:30:26.876Z,16.50
2018-04-19T06:31:26.767Z,16.10
2018-04-19T06:32:26.650Z,15.70
2018-04-19T06:33:26.568Z,15.40
2018-04-19T06:34:28.289Z,15.40
2018-04-19T06:35:26.398Z,14.70
2018-04-19T06:36:26.316Z,14.30
2018-04-19T06:37:26.257Z,15.20
2018-04-19T06:38:26.143Z,15.00
2018-04-19T06:39:26.059Z,14.80
2018-04-19T06:40:25.976Z,15.50
2018-04-19T06:41:25.921Z,15.40
2018-04-19T06:42:25.806Z,15.20
2018-04-19T06:43:25.728Z,15.00
2018-04-19T06:44:25.638Z,15.30
2018-04-19T06:45:25.557Z,14.60
2018-04-19T06:46:25.476Z,14.80
2018-04-19T06:47:25.419Z,15.40
2018-04-19T06:48:25.305Z,15.30
2018-04-19T06:49:25.223Z,15.20
2018-04-19T06:50:25.140Z,14.00
2018-04-19T06:51:25.063Z,14.40
2018-04-19T06:52:25.009Z,14.40
2018-04-19T06:53:24.890Z,14.40
2018-04-19T06:54:25.353Z,14.10
2018-04-19T06:55:24.728Z,13.10
2018-04-19T06:56:24.644Z,14.10
2018-04-19T06:57:24.588Z,14.40
2018-04-19T06:58:24.478Z,14.30
2018-04-19T06:59:24.397Z,13.10
2018-04-19T07:00:24.314Z,12.80
2018-04-19T07:01:24.237Z,12.70
2018-04-19T07:02:24.177Z,13.60
2018-04-19T07:03:24.071Z,12.60
2018-04-19T07:04:23.981Z,13.70
2018-04-19T07:05:23.899Z,13.00
2018-04-19T07:06:23.818Z,13.10
2018-04-19T07:07:23.766Z,12.80
2018-04-19T07:08:23.650Z,12.10
2018-04-19T07:09:23.570Z,12.40
2018-04-19T07:10:23.492Z,12.80
2018-04-19T07:11:23.404Z,12.10
2018-04-19T07:12:23.349Z,12.10
2018-04-19T07:13:23.243Z,12.50
2018-04-19T07:14:23.159Z,12.30
2018-04-19T07:15:23.072Z,12.10
2018-04-19T07:16:22.992Z,12.30
2018-04-19T07:17:22.938Z,12.50
2018-04-19T07:18:22.828Z,13.20
2018-04-19T07:19:22.747Z,13.40
2018-04-19T07:20:22.664Z,12.60
2018-04-19T07:21:22.580Z,12.70
2018-04-19T07:22:22.528Z,12.10
2018-04-19T07:23:23.306Z,12.00
2018-04-19T07:24:22.331Z,12.30
2018-04-19T07:25:22.250Z,10.90
2018-04-19T07:26:22.166Z,11.30
2018-04-19T07:27:22.114Z,11.50
2018-04-19T07:28:22.005Z,12.10
2018-04-19T07:29:22.844Z,11.60
2018-04-19T07:30:21.839Z,11.20
2018-04-19T07:31:21.757Z,11.60
2018-04-19T07:32:21.710Z,12.00
2018-04-19T07:33:21.596Z,10.50
2018-04-19T07:34:21.510Z,11.50
2018-04-19T07:35:21.427Z,11.30
2018-04-19T07:36:21.343Z,12.00
2018-04-19T07:37:21.294Z,11.20
2018-04-19T07:38:21.183Z,11.40
2018-04-19T07:39:21.100Z,12.40
2018-04-19T07:40:21.018Z,11.90
2018-04-19T07:41:20.936Z,12.20
2018-04-19T07:42:20.886Z,11.70
2018-04-19T07:43:20.785Z,11.80
2018-04-19T07:44:20.691Z,11.60
2018-04-19T07:45:20.608Z,12.60
2018-04-19T07:46:20.831Z,11.70
2018-04-19T07:47:20.478Z,11.00
2018-04-19T07:48:21.319Z,12.30
2018-04-19T07:49:20.280Z,11.40
2018-04-19T07:50:20.817Z,11.20
2018-04-19T07:51:20.118Z,13.20
2018-04-19T07:52:20.067Z,11.30
2018-04-19T07:53:19.954Z,10.00
2018-04-19T07:54:19.882Z,11.20
2018-04-19T07:55:19.792Z,10.90
2018-04-19T07:56:19.710Z,11.50
2018-04-19T07:57:19.658Z,10.10
2018-04-19T07:58:19.546Z,12.20
2018-04-19T07:59:19.461Z,13.20
2018-04-19T08:00:19.472Z,12.40
2018-04-19T08:01:19.298Z,13.20
2018-04-19T08:02:19.247Z,12.80
2018-04-19T08:03:19.821Z,14.60
2018-04-19T08:04:19.049Z,12.80
2018-04-19T08:05:19.029Z,13.40
2018-04-19T08:06:18.888Z,13.90
2018-04-19T08:07:18.926Z,13.00
2018-04-19T08:08:18.723Z,13.90
2018-04-19T08:09:18.644Z,13.30
2018-04-19T08:10:18.560Z,13.80
2018-04-19T08:11:18.527Z,13.10
2018-04-19T08:12:18.426Z,12.70
2018-04-19T08:13:18.315Z,12.80
2018-04-19T08:14:18.326Z,13.10
2018-04-19T08:15:18.194Z,11.50
2018-04-19T08:16:18.070Z,12.90
2018-04-19T08:17:18.029Z,12.90
2018-04-19T08:18:17.906Z,12.10
2018-04-19T08:19:17.825Z,13.20
2018-04-19T08:20:17.743Z,11.80
2018-04-19T08:21:18.517Z,11.30
2018-04-19T08:22:17.608Z,11.90
2018-04-19T08:23:18.327Z,11.10
2018-04-19T08:24:17.417Z,12.20
2018-04-19T08:25:18.335Z,11.30
2018-04-19T08:26:17.254Z,12.40
2018-04-19T08:27:17.202Z,12.00
2018-04-19T08:28:17.185Z,12.30
2018-04-19T08:29:17.016Z,12.50
2018-04-19T08:30:16.934Z,12.00
2018-04-19T08:31:16.851Z,11.80
2018-04-19T08:32:16.800Z,12.40
2018-04-19T08:33:16.688Z,11.60
2018-04-19T08:34:16.609Z,12.20
2018-04-19T08:35:16.621Z,13.10
2018-04-19T08:36:16.446Z,12.20
2018-04-19T08:37:16.403Z,13.40
2018-04-19T08:38:16.285Z,12.80
2018-04-19T08:39:16.205Z,13.70
2018-04-19T08:40:16.127Z,12.40
2018-04-19T08:41:16.049Z,12.30
2018-04-19T08:42:16.082Z,12.70
2018-04-19T08:43:15.883Z,12.50
2018-04-19T08:44:15.805Z,13.20
2018-04-19T08:45:15.724Z,14.30
2018-04-19T08:46:15.641Z,12.10
2018-04-19T08:47:15.595Z,12.80
2018-04-19T08:48:15.485Z,12.50
2018-04-19T08:49:15.496Z,12.10
2018-04-19T08:50:15.330Z,11.90
2018-04-19T08:51:15.244Z,12.00
2018-04-19T08:52:15.164Z,11.30
2018-04-19T08:53:15.119Z,11.60
2018-04-19T08:54:15.007Z,11.00
2018-04-19T08:55:14.928Z,12.00
2018-04-19T08:56:14.848Z,11.70
2018-04-19T08:57:14.769Z,10.90
2018-04-19T08:58:14.721Z,10.30
2018-04-19T08:59:14.609Z,9.90
2018-04-19T09:00:14.533Z,10.30
2018-04-19T09:01:14.457Z,10.70
2018-04-19T09:02:14.376Z,10.30
2018-04-19T09:03:14.330Z,10.60
2018-04-19T09:04:14.219Z,10.20
2018-04-19T09:05:14.139Z,11.60
2018-04-19T09:06:14.060Z,9.50
2018-04-19T09:07:13.985Z,9.90
2018-04-19T09:08:13.971Z,10.80
2018-04-19T09:09:13.823Z,11.10
2018-04-19T09:10:13.745Z,9.70
2018-04-19T09:11:13.665Z,10.10
2018-04-19T09:12:13.587Z,9.60
2018-04-19T09:13:13.532Z,9.80
2018-04-19T09:14:13.428Z,9.70
2018-04-19T09:15:13.350Z,9.80
2018-04-19T09:16:13.270Z,8.80
2018-04-19T09:17:13.849Z,9.20
2018-04-19T09:18:13.145Z,9.20
2018-04-19T09:19:13.849Z,9.20
2018-04-19T09:20:12.961Z,9.60
2018-04-19T09:21:12.880Z,9.60
2018-04-19T09:22:12.803Z,9.10
2018-04-19T09:23:12.887Z,8.30
2018-04-19T09:24:12.644Z,8.70
2018-04-19T09:25:12.568Z,9.00
2018-04-19T09:26:12.489Z,8.30
2018-04-19T09:27:12.412Z,8.40
2018-04-19T09:28:12.362Z,8.80
2018-04-19T09:29:12.254Z,8.70
2018-04-19T09:30:12.178Z,8.50
2018-04-19T09:31:12.100Z,7.20
2018-04-19T09:32:12.020Z,5.80
2018-04-19T09:33:11.972Z,7.60
2018-04-19T09:34:11.871Z,7.60
2018-04-19T09:35:11.784Z,7.00
2018-04-19T09:36:11.707Z,5.70
2018-04-19T09:37:11.632Z,6.70
2018-04-19T09:38:11.585Z,7.20
2018-04-19T09:39:11.475Z,7.10
2018-04-19T09:40:11.398Z,6.40
2018-04-19T09:41:11.321Z,6.10
2018-04-19T09:42:11.908Z,6.30
2018-04-19T09:43:11.193Z,5.80
2018-04-19T09:44:11.088Z,6.10
2018-04-19T09:45:11.015Z,5.80
2018-04-19T09:46:10.943Z,6.10
2018-04-19T09:47:10.858Z,5.80
2018-04-19T09:48:10.810Z,5.80
2018-04-19T09:49:10.706Z,7.30
2018-04-19T09:50:10.630Z,6.90
2018-04-19T09:51:10.553Z,6.40
2018-04-19T09:52:10.490Z,5.80
2018-04-19T09:53:10.431Z,5.90
2018-04-19T09:54:10.406Z,5.70
2018-04-19T09:55:10.246Z,5.70
2018-04-19T09:56:10.168Z,6.30
2018-04-19T09:57:10.093Z,6.30
2018-04-19T09:58:10.047Z,5.60
2018-04-19T09:59:09.942Z,5.10
2018-04-19T10:00:09.868Z,4.90
2018-04-19T10:01:10.364Z,4.70
2018-04-19T10:02:09.713Z,5.20
2018-04-19T10:03:09.667Z,5.30
2018-04-19T10:04:09.601Z,4.50
2018-04-19T10:05:09.488Z,3.90
2018-04-19T10:06:09.410Z,4.00
2018-04-19T10:07:09.333Z,4.20
2018-04-19T10:08:09.287Z,4.60
2018-04-19T10:09:09.182Z,4.20
2018-04-19T10:10:09.107Z,5.00
2018-04-19T10:11:10.430Z,4.90
2018-04-19T10:12:09.079Z,4.70
2018-04-19T10:13:08.912Z,4.10
2018-04-19T10:14:08.804Z,4.10
2018-04-19T10:15:08.731Z,4.40
2018-04-19T10:16:08.715Z,5.10
2018-04-19T10:17:08.580Z,5.20
2018-04-19T10:18:08.537Z,5.60
2018-04-19T10:19:08.429Z,5.30
2018-04-19T10:20:08.354Z,5.20
2018-04-19T10:21:08.280Z,5.10
2018-04-19T10:22:08.203Z,4.10
2018-04-19T10:23:08.160Z,5.10
2018-04-19T10:24:08.058Z,3.50
2018-04-19T10:25:07.979Z,3.00
2018-04-19T10:26:08.001Z,2.80
2018-04-19T10:27:07.835Z,3.80
2018-04-19T10:28:07.788Z,3.90
2018-04-19T10:29:07.676Z,3.40
2018-04-19T10:30:07.606Z,3.20
2018-04-19T10:31:07.535Z,3.60
2018-04-19T10:32:07.455Z,3.70
2018-04-19T10:33:07.499Z,3.60
2018-04-19T10:34:07.307Z,3.90
2018-04-19T10:35:07.230Z,4.00
2018-04-19T10:36:07.154Z,4.80
2018-04-19T10:37:07.078Z,4.20
2018-04-19T10:38:07.030Z,4.10
2018-04-19T10:39:06.928Z,4.30
2018-04-19T10:40:06.941Z,3.70
2018-04-19T10:41:06.776Z,3.90
2018-04-19T10:42:06.702Z,4.10
2018-04-19T10:43:06.662Z,3.50
2018-04-19T10:44:06.551Z,3.70
2018-04-19T10:45:06.475Z,3.70
2018-04-19T10:46:06.401Z,3.60
2018-04-19T10:47:06.446Z,4.90
2018-04-19T10:48:06.285Z,4.40
2018-04-19T10:49:06.180Z,4.00
2018-04-19T10:50:06.102Z,4.20
2018-04-19T10:51:06.025Z,3.90
2018-04-19T10:52:05.952Z,3.60
2018-04-19T10:53:05.881Z,4.20
2018-04-19T10:54:05.923Z,3.70
2018-04-19T10:55:05.729Z,3.90
2018-04-19T10:56:05.653Z,4.30
2018-04-19T10:57:05.580Z,4.00
2018-04-19T10:58:05.504Z,3.60
2018-04-19T10:59:05.462Z,4.20
2018-04-19T11:00:05.355Z,3.70
2018-04-19T11:01:05.371Z,3.50
2018-04-19T11:02:05.212Z,3.70
2018-04-19T11:03:05.135Z,3.30
2018-04-19T11:04:05.088Z,3.80
2018-04-19T11:05:04.980Z,3.50
2018-04-19T11:06:04.920Z,3.10
2018-04-19T11:07:04.834Z,3.10
2018-04-19T11:08:04.851Z,3.10
2018-04-19T11:09:04.713Z,3.70
2018-04-19T11:10:04.608Z,3.50
2018-04-19T11:11:04.534Z,3.30
2018-04-19T11:12:05.398Z,3.30
2018-04-19T11:13:04.389Z,3.10
2018-04-19T11:14:04.338Z,3.20
2018-04-19T11:15:04.331Z,3.10
2018-04-19T11:16:04.165Z,2.80
2018-04-19T11:17:04.086Z,2.80
2018-04-19T11:18:04.015Z,2.40
2018-04-19T11:19:03.981Z,2.50
2018-04-19T11:20:03.864Z,2.50
2018-04-19T11:21:03.794Z,2.80
2018-04-19T11:22:03.807Z,2.40
2018-04-19T11:23:03.638Z,2.70
2018-04-19T11:24:03.592Z,2.50
2018-04-19T11:25:03.491Z,2.10
2018-04-19T11:26:03.414Z,2.40
2018-04-19T11:27:03.340Z,2.60
2018-04-19T11:28:03.262Z,2.30
2018-04-19T11:29:03.219Z,2.10
2018-04-19T11:30:03.116Z,2.50
2018-04-19T11:31:03.079Z,2.30
2018-04-19T11:32:02.968Z,2.20
2018-04-19T11:33:02.889Z,2.40
2018-04-19T11:34:02.851Z,2.00
2018-04-19T11:35:02.742Z,1.90
2018-04-19T11:36:02.666Z,2.20
2018-04-19T11:37:02.591Z,2.20
2018-04-19T11:38:02.514Z,2.10
2018-04-19T11:39:03.404Z,2.20
2018-04-19T11:40:02.366Z,2.20
2018-04-19T11:41:02.295Z,2.00
2018-04-19T11:42:02.225Z,1.90
2018-04-19T11:43:02.149Z,2.00
2018-04-19T11:44:02.100Z,2.00
2018-04-19T11:45:03.455Z,1.90
2018-04-19T11:46:01.916Z,2.00
2018-04-19T11:47:01.843Z,2.40
2018-04-19T11:48:01.812Z,2.40
2018-04-19T11:49:01.815Z,2.40
2018-04-19T11:50:01.616Z,2.60
2018-04-19T11:51:01.548Z,2.80
2018-04-19T11:52:01.468Z,2.40
2018-04-19T11:53:01.394Z,2.50
2018-04-19T11:54:01.346Z,2.90
2018-04-19T11:55:01.244Z,2.50
2018-04-19T11:56:01.167Z,2.70
2018-04-19T11:57:01.091Z,2.60
2018-04-19T11:58:01.019Z,2.70
2018-04-19T11:59:00.973Z,2.80
2018-04-19T12:00:00.868Z,2.70
2018-04-19T12:01:00.842Z,2.60
2018-04-19T12:02:00.717Z,2.60
2018-04-19T12:03:00.643Z,2.70
2018-04-19T12:04:00.594Z,2.90
2018-04-19T12:05:00.489Z,2.60
2018-04-19T12:06:00.416Z,2.30
2018-04-19T12:07:00.339Z,2.50
2018-04-19T12:08:00.259Z,2.50
2018-04-19T12:09:00.222Z,2.50
2018-04-19T12:10:00.919Z,2.20
2018-04-19T12:11:00.050Z,2.80
2018-04-19T12:11:59.962Z,3.20
2018-04-19T12:12:59.888Z,2.70
2018-04-19T12:13:59.844Z,3.00
2018-04-19T12:14:59.743Z,2.70
2018-04-19T12:15:59.664Z,2.60
2018-04-19T12:16:59.589Z,2.80
2018-04-19T12:17:59.513Z,2.80
2018-04-19T12:18:59.466Z,2.80
2018-04-19T12:19:59.363Z,3.00
2018-04-19T12:20:59.288Z,2.90
2018-04-19T12:21:59.216Z,2.80
2018-04-19T12:22:59.137Z,3.10
2018-04-19T12:23:59.098Z,2.80
2018-04-19T12:24:58.992Z,3.10
2018-04-19T12:25:58.917Z,3.20
2018-04-19T12:26:58.835Z,2.70
2018-04-19T12:27:58.759Z,2.90
2018-04-19T12:28:58.715Z,2.90
2018-04-19T12:29:58.610Z,2.90
2018-04-19T12:30:58.535Z,3.30
2018-04-19T12:31:58.459Z,2.90
2018-04-19T12:32:58.385Z,2.50
2018-04-19T12:33:58.340Z,2.60
2018-04-19T12:34:58.929Z,2.70
2018-04-19T12:35:58.160Z,2.90
2018-04-19T12:36:58.083Z,2.70
2018-04-19T12:37:58.008Z,2.80
2018-04-19T12:38:58.930Z,2.30
2018-04-19T12:39:57.859Z,2.80
2018-04-19T12:40:57.782Z,2.80
2018-04-19T12:41:57.710Z,2.70
2018-04-19T12:42:57.633Z,2.50
2018-04-19T12:43:57.586Z,2.60
2018-04-19T12:44:57.580Z,2.50
2018-04-19T12:45:57.408Z,2.70
2018-04-19T12:46:57.336Z,2.50
2018-04-19T12:47:57.256Z,2.80
2018-04-19T12:48:57.184Z,2.60
2018-04-19T12:49:57.140Z,2.90
2018-04-19T12:50:57.033Z,2.50
2018-04-19T12:51:57.052Z,2.50
2018-04-19T12:52:56.882Z,2.70
2018-04-19T12:53:56.810Z,2.60
2018-04-19T12:54:56.765Z,2.60
2018-04-19T12:55:56.655Z,2.60
2018-04-19T12:56:56.581Z,2.70
2018-04-19T12:57:56.511Z,2.40
2018-04-19T12:58:56.511Z,2.40